Historique des mesures à Cassis (13260), France
Quotidien Résumé Aout 5, 2017 Unités:  Métrique    US   Métrique/US
« Précédent (Jour)
Suivant (Jour) »
Quotidien Hebdomadaire Mensuel Annuel Période au choix
  Maximum: Minimum: Moyenne:
Température: TemperatureC °C 27.4 °C 30.3 °C
Point de rosée: DewpointC °C 17.2 °C 18.9 °C
Humidité: Humidity % 38 % 48 %
Vitesse du vent: 0 km/h 0 km/h 10.9 km/h
Rafales: 0 km/h - -
Vent:- - South
Pression: PressurehPa hPa 1007.3 hPa -
Précipitations: 0.0 mm    
Historical Graphs
 
 
Mesures pour : Aout 5, 2017
Heure Temperature Point de rosée Pression Vent Vitesse du vent Rafales Humidité Pluie (par heure) Conditions
TemperatureC °C DewpointC °C PressurehPa hPa Calm     Humidity % HourlyPrecipMM mm SoftwareType W/m2
00:11 29.6 °C 18.4 °C 1008.0 hPa Calm     51 % 0.0 mm open2300-1.11 W/m2
01:11 28.9 °C 18.4 °C 1007.7 hPa NW 7.6 km/h 7.6 km/h 53 % 0.0 mm open2300-1.11 W/m2
02:11 29.5 °C 18.9 °C 1007.7 hPa West 3.4 km/h 11.6 km/h 53 % 0.0 mm open2300-1.11 W/m2
03:11 29.2 °C 18.1 °C 1007.7 hPa Calm   14 km/h 51 % 0.0 mm open2300-1.11 W/m2
04:11 28.6 °C 18.1 °C 1007.7 hPa Calm     53 % 0.0 mm open2300-1.11 W/m2
05:11 27.8 °C 17.6 °C 1007.7 hPa Calm     54 % 0.0 mm open2300-1.11 W/m2
06:11 27.8 °C 17.6 °C 1007.7 hPa ENE 6.4 km/h 6.4 km/h 54 % 0.0 mm open2300-1.11 W/m2
07:11 27.4 °C 17.2 °C 1007.7 hPa NNE 3.4 km/h 9.3 km/h 54 % 0.0 mm open2300-1.11 W/m2
08:11 31.2 °C 18.9 °C 1008.0 hPa NE 5.6 km/h 10.9 km/h 48 % 0.0 mm open2300-1.11 W/m2
09:11 29.9 °C 18.1 °C 1008.4 hPa NNE 3.4 km/h 6.4 km/h 49 % 0.0 mm open2300-1.11 W/m2
10:11 30.3 °C 21.7 °C 1008.7 hPa Calm   12.2 km/h 60 % 0.0 mm open2300-1.11 W/m2
11:11 32.7 °C 24.2 °C 1008.7 hPa South 2.3 km/h 10.3 km/h 61 % 0.0 mm open2300-1.11 W/m2
12:11 34.3 °C 23.9 °C 1008.7 hPa SE 7.6 km/h 15 km/h 55 % 0.0 mm open2300-1.11 W/m2
13:11 35.6 °C 23.3 °C 1008.0 hPa South 6.4 km/h 10.3 km/h 49 % 0.0 mm open2300-1.11 W/m2
14:11 36.8 °C 22.5 °C 1007.7 hPa SE 12.2 km/h 17.9 km/h 44 % 0.0 mm open2300-1.11 W/m2
15:11 36.3 °C 19.7 °C 1007.7 hPa NW 22.5 km/h 37 km/h 38 % 0.0 mm open2300-1.11 W/m2
16:11 36.0 °C 19.4 °C 1007.3 hPa NW 29.5 km/h 40.7 km/h 38 % 0.0 mm open2300-1.11 W/m2
17:11 34.6 °C 19.4 °C 1007.3 hPa North 26.7 km/h 57.3 km/h 41 % 0.0 mm open2300-1.11 W/m2
18:11 33.3 °C 19.3 °C 1007.3 hPa NW 41.2 km/h 44.6 km/h 44 % 0.0 mm open2300-1.11 W/m2
19:11 32.2 °C 19.8 °C 1008.0 hPa NW 15.6 km/h 33.2 km/h 48 % 0.0 mm open2300-1.11 W/m2
20:11 30.9 °C 19.9 °C 1007.7 hPa NW 52 km/h 52 km/h 52 % 0.0 mm open2300-1.11 W/m2
21:11 30.5 °C 19.8 °C 1007.7 hPa WNW 15.6 km/h 27.2 km/h 53 % 0.0 mm open2300-1.11 W/m2
22:11 31.9 °C 19.1 °C 1008.0 hPa NE 6.9 km/h 10.3 km/h 47 % 0.0 mm open2300-1.11 W/m2
23:11 31.9 °C 19.1 °C 1008.0 hPa NE 5.1 km/h 12.7 km/h 47 % 0.0 mm open2300-1.11 W/m2
Observations météo à CASSIS
WU-History script by Weather Underground - 1 mb